X  Cerrar Datos meteorológicos de aviación METAR     LYNI Nis Airport
Temperatura
3°C Temperatura
3°C Punto de rocío
100% Humedad



Viento
1 MPH
2 KM/H
0 M/S
1 NUDO



Calma
N
Condiciones actuales

Mayormente nublado Mayormente nublado
Presión 1028.92 (hPa) - 30.38 (inHg)
Visibilidad 6.2 (milla) - 10 (km)
Aeropuerto
Código de aeropuerto LYNI

localidad: Nis Airport
Distancia: 63 (mi)

Metar:
LYNI 270530Z VRB01KT 9999 BKN015 03/03 Q1029 NOSIG

Hora: 27-11-2022 06:30 CET